Deer Park, TX

4:05 PM CDT on October 23, 2014 (GMT -0500)
KTXDEERP2 | Change Station
CLOSE
Current Station
Personal Weather Station
Location: Deer Park, TX
Elevation: 26 ft
Nearby Weather Stations

Elev 26 ft 29.69 °N, 95.11 °W | Updated 15 seconds ago

Partly Cloudy
Partly Cloudy
77.4 °F
Feels Like 79 °F
N
0.0
Wind Variable Wind from NNW

Today
High -- | Low -- °F
--% Chance of Precip.
Yesterday
High -- | Low -- °F
Precip. -- in
7:27 AM 6:41 PM
Waning Crescent, 0% visible
Pressure 30.07 in
Visibility 10.0 miles
Clouds Scattered Clouds 17000 ft
Heat Index 79 °F
Dew Point 59 °F
Humidity 53%
Rainfall 0.00 in
Snow Depth Not available.
UV 4 out of 12
Pollen 5.20 out of 12
Ozone Good
PM2.5 Moderate
Flu Activity Sporadic
METAR KEFD 231950Z 01005KT 10SM SCT170 24/12 A3007

More Conditions Fewer Conditions

Pressure 30.07 in
Visibility 10.0 miles
Clouds Scattered Clouds 17000 ft
Heat Index 79 °F
Dew Point 59 °F
Humidity 53%
Rainfall 0.00 in
Snow Depth Not available.
UV 4 out of 12
Pollen 5.20 out of 12
Ozone Good
PM2.5 Moderate
Flu Activity Sporadic
METAR KEFD 231950Z 01005KT 10SM SCT170 24/12 A3007

More Conditions Fewer Conditions

10-Day Weather Forecast

Almanac

Astronomy

Oct. 23, 2014 Rise Set
Actual Time 7:27 AM CDT 6:41 PM CDT
Civil Twilight 7:03 AM CDT 7:05 PM CDT
Nautical Twilight 6:35 AM CDT 7:33 PM CDT
Astronomical Twilight 6:07 AM CDT 8:01 PM CDT
Moon 7:09 AM CDT 6:43 PM CDT
Length of Visible Light 12h 02m
Length of Day
11h 14m
Tomorrow will be 1m 39s shorter.
Waning Crescent, 0% of the Moon is Illuminated
Today
Waning Crescent
Oct 23
New
Oct 30
First Quarter
Nov 6
Full
Nov 14
Last Quarter

Today's Extremes

State Highs State Lows

Community

WunderPhotos

Upload Photos

1,764,371 photos uploaded!

WunderBlogs® & News

By Dr. Jeff Masters
Director of Meteorology, Weather Underground
By Kari Strenfel
Meteorologist, Weather Underground
By Christopher C. Burt
Weather Historian, Weather Underground
October 23, 2014
October 23, 2014
October 23, 2014

Nearby

Air Quality

  Air Quality AQ Index Pollutant
Yesterday Moderate
OZONE
Yesterday Moderate
PM2.5
Current Moderate
PM2.5
Current Good
OZONE
Thursday Moderate
OZONE
Thursday Good
PM10
Friday Moderate
OZONE
Friday Good
PM10
Saturday Unhealthy for Sensitive Groups
OZONE
Saturday Good
PM10
Sunday Moderate
OZONE
Sunday Good
PM10

Snow Depth

Station Depth Elevation
No new snow has been reported.

Earthquake Activity

City Distance Mag. Time & Date
No recent earthquake activity has been reported nearby.
Minimum magnitude displayed is 2.5.

Coastal Water Temperatures

Place Temperature
Eagle Point, TX 75.9 °F
USCG Freeport, TX 75.9 °F
Galveston Pier TX 75.0 °F
Galveston Bay (North Jetty), TX 75.9 °F
Rollover Pass, TX 75.9 °F

Nearby Weather Stations